sensor_id;sensor_type;location;lat;lon;timestamp;pressure;altitude;pressure_sealevel;temperature;humidity
41383;BME280;27971;53.902;9.118;2023-01-29T00:05:06;102663.00000000001;;;21.61;23.64
41383;BME280;27971;53.902;9.118;2023-01-29T00:07:07;102660.99999999999;;;21.29;23.92
41383;BME280;27971;53.902;9.118;2023-01-29T00:09:12;102656.0;;;20.25;24.59
41383;BME280;27971;53.902;9.118;2023-01-29T00:11:14;102659.99999999999;;;18.62;25.94
41383;BME280;27971;53.902;9.118;2023-01-29T00:13:16;102657.0;;;21.36;24.48
41383;BME280;27971;53.902;9.118;2023-01-29T00:15:18;102658.99999999999;;;21.34;24.64
41383;BME280;27971;53.902;9.118;2023-01-29T00:17:22;102663.00000000001;;;21.44;24.67
41383;BME280;27971;53.902;9.118;2023-01-29T00:19:24;102668.0;;;21.34;24.83
41383;BME280;27971;53.902;9.118;2023-01-29T00:21:27;102669.0;;;21.36;24.93
41383;BME280;27971;53.902;9.118;2023-01-29T00:23:29;102672.0;;;21.28;25.02
41383;BME280;27971;53.902;9.118;2023-01-29T00:25:33;102673.0;;;21.3;25.02
41383;BME280;27971;53.902;9.118;2023-01-29T00:27:35;102671.0;;;21.55;24.8
41383;BME280;27971;53.902;9.118;2023-01-29T00:29:37;102670.0;;;21.57;24.76
41383;BME280;27971;53.902;9.118;2023-01-29T00:31:43;102674.0;;;21.82;24.49
41383;BME280;27971;53.902;9.118;2023-01-29T00:33:42;102675.0;;;21.97;24.34
41383;BME280;27971;53.902;9.118;2023-01-29T00:35:44;102675.0;;;21.78;24.44
41383;BME280;27971;53.902;9.118;2023-01-29T00:37:48;102673.0;;;21.89;24.3
41383;BME280;27971;53.902;9.118;2023-01-29T00:39:51;102675.0;;;22.01;24.22
41383;BME280;27971;53.902;9.118;2023-01-29T00:41:53;102675.0;;;22.17;24.06
41383;BME280;27971;53.902;9.118;2023-01-29T00:43:56;102672.0;;;22.18;24.0
41383;BME280;27971;53.902;9.118;2023-01-29T00:45:59;102670.0;;;22.16;23.96
41383;BME280;27971;53.902;9.118;2023-01-29T00:48:02;102668.0;;;22.22;23.75
41383;BME280;27971;53.902;9.118;2023-01-29T00:50:06;102663.00000000001;;;22.55;23.54
41383;BME280;27971;53.902;9.118;2023-01-29T00:52:07;102657.0;;;22.21;23.75
41383;BME280;27971;53.902;9.118;2023-01-29T00:54:10;102657.0;;;22.4;23.56
41383;BME280;27971;53.902;9.118;2023-01-29T00:56:12;102663.00000000001;;;22.53;23.37
41383;BME280;27971;53.902;9.118;2023-01-29T00:58:14;102668.0;;;22.57;23.28
41383;BME280;27971;53.902;9.118;2023-01-29T01:00:18;102677.0;;;22.66;23.17
41383;BME280;27971;53.902;9.118;2023-01-29T01:02:21;102683.0;;;22.66;23.17
41383;BME280;27971;53.902;9.118;2023-01-29T01:04:22;102682.0;;;22.66;23.14
41383;BME280;27971;53.902;9.118;2023-01-29T01:06:26;102679.0;;;22.38;23.31
41383;BME280;27971;53.902;9.118;2023-01-29T01:08:27;102678.0;;;22.4;23.29
41383;BME280;27971;53.902;9.118;2023-01-29T01:10:31;102679.0;;;22.68;23.07
41383;BME280;27971;53.902;9.118;2023-01-29T01:12:32;102679.0;;;22.55;23.18
41383;BME280;27971;53.902;9.118;2023-01-29T01:14:35;102678.0;;;22.58;23.14
41383;BME280;27971;53.902;9.118;2023-01-29T01:16:38;102680.0;;;22.76;23.1
41383;BME280;27971;53.902;9.118;2023-01-29T01:18:42;102677.0;;;22.66;23.09
41383;BME280;27971;53.902;9.118;2023-01-29T01:20:44;102676.0;;;22.69;23.08
41383;BME280;27971;53.902;9.118;2023-01-29T01:22:47;102672.0;;;22.55;23.18
41383;BME280;27971;53.902;9.118;2023-01-29T01:24:48;102670.0;;;22.64;23.13
41383;BME280;27971;53.902;9.118;2023-01-29T01:26:50;102668.0;;;22.62;23.12
41383;BME280;27971;53.902;9.118;2023-01-29T01:28:53;102667.0;;;22.65;23.1
41383;BME280;27971;53.902;9.118;2023-01-29T01:30:56;102664.00000000001;;;22.65;23.12
41383;BME280;27971;53.902;9.118;2023-01-29T01:32:58;102659.99999999999;;;22.55;23.19
41383;BME280;27971;53.902;9.118;2023-01-29T01:35:01;102659.99999999999;;;22.59;23.14
41383;BME280;27971;53.902;9.118;2023-01-29T01:37:05;102660.99999999999;;;22.59;23.17
41383;BME280;27971;53.902;9.118;2023-01-29T01:39:05;102665.00000000001;;;22.44;23.26
41383;BME280;27971;53.902;9.118;2023-01-29T01:41:08;102665.00000000001;;;22.67;23.12
41383;BME280;27971;53.902;9.118;2023-01-29T01:43:11;102664.00000000001;;;22.58;23.12
41383;BME280;27971;53.902;9.118;2023-01-29T01:45:19;102664.00000000001;;;22.55;23.13
41383;BME280;27971;53.902;9.118;2023-01-29T01:47:17;102665.00000000001;;;22.7;23.11
41383;BME280;27971;53.902;9.118;2023-01-29T01:49:19;102667.0;;;22.62;23.15
41383;BME280;27971;53.902;9.118;2023-01-29T01:51:23;102670.0;;;22.69;23.06
41383;BME280;27971;53.902;9.118;2023-01-29T01:53:27;102669.0;;;22.62;23.16
41383;BME280;27971;53.902;9.118;2023-01-29T01:55:29;102666.00000000001;;;22.57;23.17
41383;BME280;27971;53.902;9.118;2023-01-29T01:57:31;102660.99999999999;;;22.67;23.16
41383;BME280;27971;53.902;9.118;2023-01-29T01:59:33;102658.0;;;22.55;23.17
41383;BME280;27971;53.902;9.118;2023-01-29T02:01:36;102660.99999999999;;;22.52;23.23
41383;BME280;27971;53.902;9.118;2023-01-29T02:03:41;102663.00000000001;;;22.56;23.19
41383;BME280;27971;53.902;9.118;2023-01-29T02:05:41;102664.00000000001;;;22.64;23.14
41383;BME280;27971;53.902;9.118;2023-01-29T02:07:46;102661.99999999999;;;22.43;23.22
41383;BME280;27971;53.902;9.118;2023-01-29T02:09:51;102664.00000000001;;;22.61;23.16
41383;BME280;27971;53.902;9.118;2023-01-29T02:11:50;102664.00000000001;;;22.38;23.27
41383;BME280;27971;53.902;9.118;2023-01-29T02:13:51;102658.99999999999;;;22.38;23.24
41383;BME280;27971;53.902;9.118;2023-01-29T02:15:54;102654.0;;;22.56;23.08
41383;BME280;27971;53.902;9.118;2023-01-29T02:17:56;102646.0;;;22.38;23.15
41383;BME280;27971;53.902;9.118;2023-01-29T02:20:02;102641.00000000001;;;22.34;23.15
41383;BME280;27971;53.902;9.118;2023-01-29T02:23:20;102635.99999999999;;;22.48;23.13
41383;BME280;27971;53.902;9.118;2023-01-29T02:24:17;102633.99999999999;;;22.83;23.28
41383;BME280;27971;53.902;9.118;2023-01-29T02:26:18;102631.0;;;22.53;23.35
41383;BME280;27971;53.902;9.118;2023-01-29T02:28:31;102623.0;;;22.43;23.31
41383;BME280;27971;53.902;9.118;2023-01-29T02:30:17;102616.00000000001;;;22.6;23.25
41383;BME280;27971;53.902;9.118;2023-01-29T02:32:20;102614.00000000001;;;22.32;23.34
41383;BME280;27971;53.902;9.118;2023-01-29T02:34:24;102611.99999999999;;;22.44;23.23
41383;BME280;27971;53.902;9.118;2023-01-29T02:36:29;102606.0;;;22.41;23.21
41383;BME280;27971;53.902;9.118;2023-01-29T02:38:29;102601.0;;;22.52;23.09
41383;BME280;27971;53.902;9.118;2023-01-29T02:40:30;102593.0;;;22.46;23.14
41383;BME280;27971;53.902;9.118;2023-01-29T02:42:34;102588.00000000001;;;22.46;23.08
41383;BME280;27971;53.902;9.118;2023-01-29T02:44:38;102582.0;;;22.49;23.1
41383;BME280;27971;53.902;9.118;2023-01-29T02:46:40;102581.0;;;22.41;23.12
41383;BME280;27971;53.902;9.118;2023-01-29T02:48:41;102574.0;;;22.47;23.06
41383;BME280;27971;53.902;9.118;2023-01-29T02:50:44;102569.0;;;22.4;23.12
41383;BME280;27971;53.902;9.118;2023-01-29T02:52:51;102566.00000000001;;;22.33;23.1
41383;BME280;27971;53.902;9.118;2023-01-29T02:54:51;102563.00000000001;;;22.4;23.16
41383;BME280;27971;53.902;9.118;2023-01-29T02:56:52;102557.0;;;22.36;23.1
41383;BME280;27971;53.902;9.118;2023-01-29T02:58:58;102554.0;;;22.44;23.06
41383;BME280;27971;53.902;9.118;2023-01-29T03:00:57;102553.0;;;22.37;23.09
41383;BME280;27971;53.902;9.118;2023-01-29T03:02:59;102550.0;;;22.43;22.99
41383;BME280;27971;53.902;9.118;2023-01-29T03:05:04;102549.0;;;22.46;23.0
41383;BME280;27971;53.902;9.118;2023-01-29T03:07:05;102549.0;;;22.42;23.0
41383;BME280;27971;53.902;9.118;2023-01-29T03:09:09;102549.0;;;22.44;22.98
41383;BME280;27971;53.902;9.118;2023-01-29T03:11:10;102552.0;;;22.34;23.07
41383;BME280;27971;53.902;9.118;2023-01-29T03:13:16;102552.0;;;22.31;23.05
41383;BME280;27971;53.902;9.118;2023-01-29T03:15:17;102551.0;;;22.37;22.99
41383;BME280;27971;53.902;9.118;2023-01-29T03:17:19;102552.0;;;22.39;22.98
41383;BME280;27971;53.902;9.118;2023-01-29T03:19:26;102551.0;;;22.33;22.97
41383;BME280;27971;53.902;9.118;2023-01-29T03:21:29;102548.0;;;22.43;22.95
41383;BME280;27971;53.902;9.118;2023-01-29T03:23:28;102546.0;;;22.43;23.02
41383;BME280;27971;53.902;9.118;2023-01-29T03:25:29;102547.0;;;22.42;23.02
41383;BME280;27971;53.902;9.118;2023-01-29T03:27:35;102545.0;;;22.37;22.96
41383;BME280;27971;53.902;9.118;2023-01-29T03:29:36;102542.0;;;22.39;22.95
41383;BME280;27971;53.902;9.118;2023-01-29T03:31:37;102542.0;;;22.25;23.0
41383;BME280;27971;53.902;9.118;2023-01-29T03:33:44;102545.0;;;22.31;22.95
41383;BME280;27971;53.902;9.118;2023-01-29T03:35:46;102547.0;;;22.42;22.93
41383;BME280;27971;53.902;9.118;2023-01-29T03:37:47;102550.0;;;22.37;23.0
41383;BME280;27971;53.902;9.118;2023-01-29T03:39:48;102553.0;;;22.29;22.95
41383;BME280;27971;53.902;9.118;2023-01-29T03:41:55;102552.0;;;22.33;22.93
41383;BME280;27971;53.902;9.118;2023-01-29T03:44:04;102550.0;;;22.35;22.95
41383;BME280;27971;53.902;9.118;2023-01-29T03:46:02;102552.0;;;22.39;23.02
41383;BME280;27971;53.902;9.118;2023-01-29T03:48:05;102553.0;;;22.31;22.97
41383;BME280;27971;53.902;9.118;2023-01-29T03:50:07;102552.0;;;22.37;22.97
41383;BME280;27971;53.902;9.118;2023-01-29T03:52:13;102552.0;;;22.4;22.96
41383;BME280;27971;53.902;9.118;2023-01-29T03:54:14;102552.0;;;22.27;23.04
41383;BME280;27971;53.902;9.118;2023-01-29T03:56:20;102551.0;;;22.34;23.02
41383;BME280;27971;53.902;9.118;2023-01-29T03:58:19;102548.0;;;22.34;23.0
41383;BME280;27971;53.902;9.118;2023-01-29T04:00:19;102546.0;;;22.17;23.1
41383;BME280;27971;53.902;9.118;2023-01-29T04:02:23;102544.0;;;22.22;23.01
41383;BME280;27971;53.902;9.118;2023-01-29T04:04:25;102540.00000000001;;;22.26;23.0
41383;BME280;27971;53.902;9.118;2023-01-29T04:06:28;102545.0;;;22.37;22.9
41383;BME280;27971;53.902;9.118;2023-01-29T04:08:29;102558.99999999999;;;22.21;23.0
41383;BME280;27971;53.902;9.118;2023-01-29T04:10:32;102561.99999999999;;;22.31;22.89
41383;BME280;27971;53.902;9.118;2023-01-29T04:12:37;102558.99999999999;;;22.27;22.9
41383;BME280;27971;53.902;9.118;2023-01-29T04:14:36;102553.0;;;22.35;22.86
41383;BME280;27971;53.902;9.118;2023-01-29T04:16:41;102553.0;;;22.4;22.77
41383;BME280;27971;53.902;9.118;2023-01-29T04:18:44;102552.0;;;22.35;22.83
41383;BME280;27971;53.902;9.118;2023-01-29T04:20:44;102552.0;;;22.26;22.87
41383;BME280;27971;53.902;9.118;2023-01-29T04:22:53;102552.0;;;22.45;22.73
41383;BME280;27971;53.902;9.118;2023-01-29T04:24:50;102549.0;;;22.38;22.74
41383;BME280;27971;53.902;9.118;2023-01-29T04:26:59;102552.0;;;22.33;22.76
41383;BME280;27971;53.902;9.118;2023-01-29T04:29:08;102555.0;;;22.26;22.83
41383;BME280;27971;53.902;9.118;2023-01-29T04:31:00;102555.0;;;22.33;22.84
41383;BME280;27971;53.902;9.118;2023-01-29T04:33:10;102555.0;;;22.28;22.82
41383;BME280;27971;53.902;9.118;2023-01-29T04:35:15;102551.0;;;22.34;22.8
41383;BME280;27971;53.902;9.118;2023-01-29T04:37:13;102549.0;;;22.35;22.84
41383;BME280;27971;53.902;9.118;2023-01-29T04:39:14;102542.0;;;22.14;22.94
41383;BME280;27971;53.902;9.118;2023-01-29T04:41:16;102530.0;;;22.18;22.93
41383;BME280;27971;53.902;9.118;2023-01-29T04:43:20;102522.0;;;22.29;22.83
41383;BME280;27971;53.902;9.118;2023-01-29T04:45:22;102517.0;;;22.22;22.93
41383;BME280;27971;53.902;9.118;2023-01-29T04:47:28;102510.99999999999;;;22.2;22.89
41383;BME280;27971;53.902;9.118;2023-01-29T04:49:28;102509.99999999999;;;22.21;22.91
41383;BME280;27971;53.902;9.118;2023-01-29T04:51:38;102508.0;;;22.18;22.9
41383;BME280;27971;53.902;9.118;2023-01-29T04:53:34;102502.0;;;22.24;22.9
41383;BME280;27971;53.902;9.118;2023-01-29T04:55:35;102505.0;;;22.13;22.91
41383;BME280;27971;53.902;9.118;2023-01-29T04:57:39;102514.00000000001;;;22.12;22.9
41383;BME280;27971;53.902;9.118;2023-01-29T04:59:41;102517.0;;;22.16;22.82
41383;BME280;27971;53.902;9.118;2023-01-29T05:01:39;102511.99999999999;;;22.19;22.8
41383;BME280;27971;53.902;9.118;2023-01-29T05:03:44;102507.0;;;22.13;22.8
41383;BME280;27971;53.902;9.118;2023-01-29T05:05:46;102501.0;;;22.23;22.72
41383;BME280;27971;53.902;9.118;2023-01-29T05:07:47;102489.00000000001;;;22.3;22.66
41383;BME280;27971;53.902;9.118;2023-01-29T05:09:51;102470.0;;;22.39;22.53
41383;BME280;27971;53.902;9.118;2023-01-29T05:11:52;102472.0;;;22.19;22.61
41383;BME280;27971;53.902;9.118;2023-01-29T05:13:55;102480.0;;;22.38;22.49
41383;BME280;27971;53.902;9.118;2023-01-29T05:16:01;102484.99999999999;;;22.28;22.55
41383;BME280;27971;53.902;9.118;2023-01-29T05:18:01;102486.99999999999;;;22.25;22.59
41383;BME280;27971;53.902;9.118;2023-01-29T05:20:05;102497.0;;;22.24;22.63
41383;BME280;27971;53.902;9.118;2023-01-29T05:22:08;102498.0;;;22.3;22.58
41383;BME280;27971;53.902;9.118;2023-01-29T05:24:11;102496.0;;;22.22;22.63
41383;BME280;27971;53.902;9.118;2023-01-29T05:26:12;102498.0;;;21.97;22.55
41383;BME280;27971;53.902;9.118;2023-01-29T05:28:14;102508.0;;;22.32;22.43
41383;BME280;27971;53.902;9.118;2023-01-29T05:30:17;102516.00000000001;;;22.42;22.43
41383;BME280;27971;53.902;9.118;2023-01-29T05:32:20;102514.00000000001;;;20.15;22.35
41383;BME280;27971;53.902;9.118;2023-01-29T05:34:23;102504.0;;;19.65;21.65
41383;BME280;27971;53.902;9.118;2023-01-29T05:36:25;102492.0;;;19.72;20.92
41383;BME280;27971;53.902;9.118;2023-01-29T05:38:28;102485.99999999999;;;20.76;20.46
41383;BME280;27971;53.902;9.118;2023-01-29T05:40:31;102479.0;;;20.2;20.24
41383;BME280;27971;53.902;9.118;2023-01-29T05:42:34;102473.0;;;21.22;19.9
41383;BME280;27971;53.902;9.118;2023-01-29T05:44:38;102463.00000000001;;;20.77;19.91
41383;BME280;27971;53.902;9.118;2023-01-29T05:46:41;102442.0;;;20.96;19.82
41383;BME280;27971;53.902;9.118;2023-01-29T05:50:46;102438.00000000001;;;23.53;19.81
41383;BME280;27971;53.902;9.118;2023-01-29T05:54:52;102458.0;;;23.27;20.94
41383;BME280;27971;53.902;9.118;2023-01-29T05:56:54;102455.0;;;22.95;21.33
41383;BME280;27971;53.902;9.118;2023-01-29T05:58:56;102447.0;;;22.89;21.5
41383;BME280;27971;53.902;9.118;2023-01-29T06:01:07;102444.0;;;22.7;21.74
41383;BME280;27971;53.902;9.118;2023-01-29T06:03:03;102439.00000000001;;;20.08;21.73
41383;BME280;27971;53.902;9.118;2023-01-29T06:05:06;102442.0;;;19.29;20.99
41383;BME280;27971;53.902;9.118;2023-01-29T06:07:08;102445.0;;;19.78;20.24
41383;BME280;27971;53.902;9.118;2023-01-29T06:09:11;102434.99999999999;;;20.38;19.6
41383;BME280;27971;53.902;9.118;2023-01-29T06:11:14;102429.0;;;20.7;19.18
41383;BME280;27971;53.902;9.118;2023-01-29T06:13:16;102431.0;;;23.12;19.04
41383;BME280;27971;53.902;9.118;2023-01-29T06:15:19;102435.99999999999;;;24.42;19.4
41383;BME280;27971;53.902;9.118;2023-01-29T06:17:22;102440.00000000001;;;24.15;19.83
41383;BME280;27971;53.902;9.118;2023-01-29T06:19:26;102438.00000000001;;;24.1;20.02
41383;BME280;27971;53.902;9.118;2023-01-29T06:21:28;102433.0;;;24.23;20.12
41383;BME280;27971;53.902;9.118;2023-01-29T06:23:31;102433.0;;;24.02;20.25
41383;BME280;27971;53.902;9.118;2023-01-29T06:25:33;102432.0;;;24.02;20.31
41383;BME280;27971;53.902;9.118;2023-01-29T06:27:36;102429.0;;;24.19;20.16
41383;BME280;27971;53.902;9.118;2023-01-29T06:29:38;102428.0;;;24.15;20.14
41383;BME280;27971;53.902;9.118;2023-01-29T06:31:40;102429.0;;;23.99;20.18
41383;BME280;27971;53.902;9.118;2023-01-29T06:33:43;102428.0;;;24.18;20.01
41383;BME280;27971;53.902;9.118;2023-01-29T06:35:45;102426.0;;;24.44;19.86
41383;BME280;27971;53.902;9.118;2023-01-29T06:37:47;102418.0;;;24.31;19.91
41383;BME280;27971;53.902;9.118;2023-01-29T06:39:51;102413.00000000001;;;24.39;19.84
41383;BME280;27971;53.902;9.118;2023-01-29T06:41:53;102414.00000000001;;;24.57;19.75
41383;BME280;27971;53.902;9.118;2023-01-29T06:43:55;102416.00000000001;;;24.66;19.62
41383;BME280;27971;53.902;9.118;2023-01-29T06:45:57;102416.00000000001;;;24.57;19.67
41383;BME280;27971;53.902;9.118;2023-01-29T06:48:00;102408.99999999999;;;24.59;19.65
41383;BME280;27971;53.902;9.118;2023-01-29T06:50:03;102408.99999999999;;;24.96;19.39
41383;BME280;27971;53.902;9.118;2023-01-29T06:52:06;102408.99999999999;;;24.82;19.41
41383;BME280;27971;53.902;9.118;2023-01-29T06:54:08;102408.0;;;24.86;19.28
41383;BME280;27971;53.902;9.118;2023-01-29T06:56:11;102408.0;;;24.65;19.42
41383;BME280;27971;53.902;9.118;2023-01-29T06:58:13;102405.0;;;24.61;19.44
41383;BME280;27971;53.902;9.118;2023-01-29T07:00:16;102404.0;;;24.78;19.37
41383;BME280;27971;53.902;9.118;2023-01-29T07:02:18;102404.0;;;24.54;19.46
41383;BME280;27971;53.902;9.118;2023-01-29T07:04:21;102404.0;;;24.67;19.36
41383;BME280;27971;53.902;9.118;2023-01-29T07:06:26;102403.0;;;24.95;19.23
41383;BME280;27971;53.902;9.118;2023-01-29T07:08:26;102404.0;;;24.82;19.31
41383;BME280;27971;53.902;9.118;2023-01-29T07:10:29;102403.0;;;24.71;19.35
41383;BME280;27971;53.902;9.118;2023-01-29T07:14:34;102411.99999999999;;;24.95;19.21
41383;BME280;27971;53.902;9.118;2023-01-29T07:16:36;102417.0;;;24.93;19.22
41383;BME280;27971;53.902;9.118;2023-01-29T07:18:39;102415.00000000001;;;25.13;19.1
41383;BME280;27971;53.902;9.118;2023-01-29T07:20:42;102407.0;;;25.19;19.11
41383;BME280;27971;53.902;9.118;2023-01-29T07:22:43;102399.0;;;25.09;19.18
41383;BME280;27971;53.902;9.118;2023-01-29T07:24:46;102401.0;;;25.4;18.89
41383;BME280;27971;53.902;9.118;2023-01-29T07:26:49;102400.0;;;25.44;18.97
41383;BME280;27971;53.902;9.118;2023-01-29T07:28:51;102396.0;;;24.99;19.28
41383;BME280;27971;53.902;9.118;2023-01-29T07:30:56;102397.0;;;25.35;19.05
41383;BME280;27971;53.902;9.118;2023-01-29T07:33:01;102397.0;;;25.38;19.1
41383;BME280;27971;53.902;9.118;2023-01-29T07:34:59;102394.0;;;26.0;18.73
41383;BME280;27971;53.902;9.118;2023-01-29T07:37:03;102396.0;;;25.68;18.79
41383;BME280;27971;53.902;9.118;2023-01-29T07:39:05;102397.0;;;25.5;18.78
41383;BME280;27971;53.902;9.118;2023-01-29T07:41:09;102396.0;;;25.34;18.9
41383;BME280;27971;53.902;9.118;2023-01-29T07:43:11;102394.0;;;25.27;18.87
41383;BME280;27971;53.902;9.118;2023-01-29T07:45:13;102396.0;;;25.54;18.74
41383;BME280;27971;53.902;9.118;2023-01-29T07:47:16;102394.0;;;25.7;18.64
41383;BME280;27971;53.902;9.118;2023-01-29T07:49:18;102389.0;;;25.61;18.65
41383;BME280;27971;53.902;9.118;2023-01-29T07:51:21;102385.0;;;25.27;18.81
41383;BME280;27971;53.902;9.118;2023-01-29T07:53:24;102386.0;;;25.35;18.83
41383;BME280;27971;53.902;9.118;2023-01-29T07:55:27;102386.0;;;25.35;18.79
41383;BME280;27971;53.902;9.118;2023-01-29T07:57:29;102388.0;;;25.41;18.8
41383;BME280;27971;53.902;9.118;2023-01-29T07:59:32;102384.0;;;25.45;18.7
41383;BME280;27971;53.902;9.118;2023-01-29T08:01:34;102376.0;;;25.81;18.55
41383;BME280;27971;53.902;9.118;2023-01-29T08:03:36;102367.0;;;25.63;18.57
41383;BME280;27971;53.902;9.118;2023-01-29T08:05:38;102367.0;;;26.07;18.36
41383;BME280;27971;53.902;9.118;2023-01-29T08:07:42;102373.0;;;25.76;18.36
41383;BME280;27971;53.902;9.118;2023-01-29T08:09:44;102375.0;;;25.56;18.5
41383;BME280;27971;53.902;9.118;2023-01-29T08:11:46;102371.0;;;26.01;18.36
41383;BME280;27971;53.902;9.118;2023-01-29T08:13:49;102369.0;;;26.06;18.26
41383;BME280;27971;53.902;9.118;2023-01-29T08:15:51;102364.0;;;25.84;18.28
41383;BME280;27971;53.902;9.118;2023-01-29T08:17:53;102363.0;;;25.98;18.26
41383;BME280;27971;53.902;9.118;2023-01-29T08:19:55;102361.0;;;25.98;18.28
41383;BME280;27971;53.902;9.118;2023-01-29T08:21:58;102360.0;;;26.34;18.07
41383;BME280;27971;53.902;9.118;2023-01-29T08:24:00;102358.0;;;25.97;18.07
41383;BME280;27971;53.902;9.118;2023-01-29T08:26:04;102350.0;;;25.79;18.28
41383;BME280;27971;53.902;9.118;2023-01-29T08:28:07;102342.0;;;25.89;18.21
41383;BME280;27971;53.902;9.118;2023-01-29T08:30:11;102336.0;;;25.8;18.25
41383;BME280;27971;53.902;9.118;2023-01-29T08:32:13;102334.0;;;25.8;18.28
41383;BME280;27971;53.902;9.118;2023-01-29T08:34:15;102336.0;;;25.74;18.43
41383;BME280;27971;53.902;9.118;2023-01-29T08:36:18;102334.0;;;26.02;18.32
41383;BME280;27971;53.902;9.118;2023-01-29T08:38:20;102332.0;;;26.36;18.13
41383;BME280;27971;53.902;9.118;2023-01-29T08:40:22;102332.0;;;26.33;18.18
41383;BME280;27971;53.902;9.118;2023-01-29T08:42:24;102337.0;;;26.4;18.06
41383;BME280;27971;53.902;9.118;2023-01-29T08:44:27;102344.0;;;26.91;17.79
41383;BME280;27971;53.902;9.118;2023-01-29T08:46:29;102348.0;;;26.86;17.9
41383;BME280;27971;53.902;9.118;2023-01-29T08:48:33;102347.0;;;26.77;17.99
41383;BME280;27971;53.902;9.118;2023-01-29T08:50:36;102348.0;;;26.8;18.02
41383;BME280;27971;53.902;9.118;2023-01-29T08:52:38;102347.0;;;26.82;18.02
41383;BME280;27971;53.902;9.118;2023-01-29T08:54:40;102346.0;;;26.71;18.17
41383;BME280;27971;53.902;9.118;2023-01-29T08:56:43;102346.0;;;26.76;18.2
41383;BME280;27971;53.902;9.118;2023-01-29T08:58:45;102346.0;;;26.62;18.29
41383;BME280;27971;53.902;9.118;2023-01-29T09:00:48;102344.0;;;26.62;18.34
41383;BME280;27971;53.902;9.118;2023-01-29T09:02:50;102340.0;;;26.66;18.34
41383;BME280;27971;53.902;9.118;2023-01-29T09:04:53;102337.0;;;26.68;18.31
41383;BME280;27971;53.902;9.118;2023-01-29T09:06:56;102339.0;;;26.6;18.4
41383;BME280;27971;53.902;9.118;2023-01-29T09:08:59;102342.0;;;26.65;18.26
41383;BME280;27971;53.902;9.118;2023-01-29T09:11:02;102341.0;;;26.63;18.28
41383;BME280;27971;53.902;9.118;2023-01-29T09:13:04;102340.0;;;26.4;18.41
41383;BME280;27971;53.902;9.118;2023-01-29T09:15:08;102338.0;;;26.19;18.51
41383;BME280;27971;53.902;9.118;2023-01-29T09:17:09;102337.0;;;26.17;18.53
41383;BME280;27971;53.902;9.118;2023-01-29T09:19:12;102334.0;;;26.39;18.32
41383;BME280;27971;53.902;9.118;2023-01-29T09:21:14;102334.0;;;26.27;18.47
41383;BME280;27971;53.902;9.118;2023-01-29T09:23:17;102331.0;;;25.41;19.02
41383;BME280;27971;53.902;9.118;2023-01-29T09:25:19;102332.0;;;23.69;20.19
41383;BME280;27971;53.902;9.118;2023-01-29T09:27:22;102330.0;;;22.25;21.15
41383;BME280;27971;53.902;9.118;2023-01-29T09:29:25;102332.0;;;20.09;22.78
41383;BME280;27971;53.902;9.118;2023-01-29T09:31:27;102326.0;;;21.72;21.7
41383;BME280;27971;53.902;9.118;2023-01-29T09:33:31;102326.0;;;21.59;21.73
41383;BME280;27971;53.902;9.118;2023-01-29T09:35:33;102321.0;;;22.04;21.4
41383;BME280;27971;53.902;9.118;2023-01-29T09:37:36;102317.0;;;22.43;21.1
41383;BME280;27971;53.902;9.118;2023-01-29T09:39:38;102314.0;;;22.73;20.8
41383;BME280;27971;53.902;9.118;2023-01-29T09:41:48;102315.0;;;22.13;21.12
41383;BME280;27971;53.902;9.118;2023-01-29T09:43:47;102310.0;;;22.72;20.77
41383;BME280;27971;53.902;9.118;2023-01-29T09:45:52;102309.0;;;22.72;20.75
41383;BME280;27971;53.902;9.118;2023-01-29T09:47:50;102307.0;;;22.99;20.53
41383;BME280;27971;53.902;9.118;2023-01-29T09:49:56;102304.0;;;23.33;20.3
41383;BME280;27971;53.902;9.118;2023-01-29T09:52:00;102305.0;;;23.89;19.94
41383;BME280;27971;53.902;9.118;2023-01-29T09:54:09;102305.0;;;23.8;19.95
41383;BME280;27971;53.902;9.118;2023-01-29T09:56:03;102307.0;;;23.27;20.33
41383;BME280;27971;53.902;9.118;2023-01-29T09:58:12;102309.0;;;23.6;20.08
41383;BME280;27971;53.902;9.118;2023-01-29T10:00:13;102312.0;;;23.87;19.86
41383;BME280;27971;53.902;9.118;2023-01-29T10:02:20;102311.0;;;24.08;19.68
41383;BME280;27971;53.902;9.118;2023-01-29T10:04:27;102310.0;;;23.53;20.05
41383;BME280;27971;53.902;9.118;2023-01-29T10:06:22;102308.0;;;23.76;20.02
41383;BME280;27971;53.902;9.118;2023-01-29T10:08:32;102307.0;;;23.47;20.11
41383;BME280;27971;53.902;9.118;2023-01-29T10:10:29;102302.0;;;23.58;20.32
41383;BME280;27971;53.902;9.118;2023-01-29T10:12:36;102300.0;;;23.54;20.43
41383;BME280;27971;53.902;9.118;2023-01-29T10:14:32;102304.0;;;24.02;20.17
41383;BME280;27971;53.902;9.118;2023-01-29T10:16:39;102307.0;;;23.83;20.3
41383;BME280;27971;53.902;9.118;2023-01-29T10:18:47;102304.0;;;24.98;19.45
41383;BME280;27971;53.902;9.118;2023-01-29T10:20:46;102298.0;;;25.98;18.87
41383;BME280;27971;53.902;9.118;2023-01-29T10:23:17;102294.0;;;26.34;18.72
41383;BME280;27971;53.902;9.118;2023-01-29T10:24:45;102288.0;;;25.95;19.35
41383;BME280;27971;53.902;9.118;2023-01-29T10:26:43;102285.0;;;25.66;19.61
41383;BME280;27971;53.902;9.118;2023-01-29T10:28:48;102283.0;;;26.27;19.16
41383;BME280;27971;53.902;9.118;2023-01-29T10:30:54;102283.0;;;26.79;18.84
41383;BME280;27971;53.902;9.118;2023-01-29T10:32:54;102283.0;;;26.72;18.99
41383;BME280;27971;53.902;9.118;2023-01-29T10:34:59;102279.0;;;26.72;19.02
41383;BME280;27971;53.902;9.118;2023-01-29T10:37:01;102276.0;;;26.9;19.01
41383;BME280;27971;53.902;9.118;2023-01-29T10:39:03;102274.0;;;26.98;19.07
41383;BME280;27971;53.902;9.118;2023-01-29T10:41:18;102272.0;;;26.72;19.26
41383;BME280;27971;53.902;9.118;2023-01-29T10:43:13;102269.0;;;26.75;19.42
41383;BME280;27971;53.902;9.118;2023-01-29T10:45:20;102267.0;;;26.7;19.42